Aviation Digital Data Service (ADDS)

Output produced by METARs form (2329 UTC 15 February 2019)
found at http://www.aviationweather.gov/metar/data/
 
METAR text: KHRL 152252Z 17013KT 10SM CLR 28/18 A2970 RMK AO2 SLP057 T02830178 $
Conditions at: KHRL (HARLINGEN , TX, US) observed 2252 UTC 15 February 2019
Temperature: 28.3°C (83°F)
Dewpoint: 17.8°C (64°F) [RH = 53%]
Pressure (altimeter): 29.70 inches Hg (1005.8 mb)
[Sea-level pressure: 1005.7 mb]
Winds: from the S (170 degrees) at 15 MPH (13 knots; 6.7 m/s)
Visibility: 10 or more miles (16+ km)
Ceiling: at least 12,000 feet AGL
Clouds: sky clear below 12,000 feet AGL
Weather:
SOME DATA ABOVE MAY BE INACCURATE!!!
"$" is an indication the sensor requires maintenance

METAR text: KHRL 152152Z 17012KT 10SM CLR 31/17 A2968 RMK AO2 SLP051 T03060172
Conditions at: KHRL (HARLINGEN , TX, US) observed 2152 UTC 15 February 2019
Temperature: 30.6°C (87°F)
Dewpoint: 17.2°C (63°F) [RH = 45%]
Pressure (altimeter): 29.68 inches Hg (1005.2 mb)
[Sea-level pressure: 1005.1 mb]
Winds: from the S (170 degrees) at 14 MPH (12 knots; 6.2 m/s)
Visibility: 10 or more miles (16+ km)
Ceiling: at least 12,000 feet AGL
Clouds: sky clear below 12,000 feet AGL
Weather: no significant weather observed at this time

METAR text: KHRL 152052Z 18014KT 10SM CLR 31/17 A2968 RMK AO2 SLP051 T03110167 56043
Conditions at: KHRL (HARLINGEN , TX, US) observed 2052 UTC 15 February 2019
Temperature: 31.1°C (88°F)
Dewpoint: 16.7°C (62°F) [RH = 42%]
Pressure (altimeter): 29.68 inches Hg (1005.2 mb)
[Sea-level pressure: 1005.1 mb]
Winds: from the S (180 degrees) at 16 MPH (14 knots; 7.2 m/s)
Visibility: 10 or more miles (16+ km)
Ceiling: at least 12,000 feet AGL
Clouds: sky clear below 12,000 feet AGL
Weather: no significant weather observed at this time

METAR text: KHRL 151952Z 17012KT 10SM CLR 31/18 A2973 RMK AO2 SLP066 T03060178
Conditions at: KHRL (HARLINGEN , TX, US) observed 1952 UTC 15 February 2019
Temperature: 30.6°C (87°F)
Dewpoint: 17.8°C (64°F) [RH = 46%]
Pressure (altimeter): 29.73 inches Hg (1006.9 mb)
[Sea-level pressure: 1006.6 mb]
Winds: from the S (170 degrees) at 14 MPH (12 knots; 6.2 m/s)
Visibility: 10 or more miles (16+ km)
Ceiling: at least 12,000 feet AGL
Clouds: sky clear below 12,000 feet AGL
Weather: no significant weather observed at this time

METAR text: KHRL 151852Z 19015G20KT 10SM CLR 29/19 A2976 RMK AO2 SLP078 T02940189
Conditions at: KHRL (HARLINGEN , TX, US) observed 1852 UTC 15 February 2019
Temperature: 29.4°C (85°F)
Dewpoint: 18.9°C (66°F) [RH = 53%]
Pressure (altimeter): 29.76 inches Hg (1007.9 mb)
[Sea-level pressure: 1007.8 mb]
Winds: from the S (190 degrees) at 17 MPH (15 knots; 7.7 m/s)
gusting to 23 MPH (20 knots; 10.3 m/s)
Visibility: 10 or more miles (16+ km)
Ceiling: at least 12,000 feet AGL
Clouds: sky clear below 12,000 feet AGL
Weather: no significant weather observed at this time

METAR text: KHRL 151752Z 18017KT 10SM CLR 27/19 A2981 RMK AO2 SLP094 T02670194 10272 20178 58013
Conditions at: KHRL (HARLINGEN , TX, US) observed 1752 UTC 15 February 2019
Temperature: 26.7°C (80°F)
Dewpoint: 19.4°C (67°F) [RH = 64%]
Pressure (altimeter): 29.81 inches Hg (1009.6 mb)
[Sea-level pressure: 1009.4 mb]
Winds: from the S (180 degrees) at 20 MPH (17 knots; 8.7 m/s)
Visibility: 10 or more miles (16+ km)
Ceiling: at least 12,000 feet AGL
Clouds: sky clear below 12,000 feet AGL
Weather: no significant weather observed at this time

METAR text: KHRL 151652Z 19013KT 10SM FEW013 25/19 A2984 RMK AO2 SLP105 T02500194
Conditions at: KHRL (HARLINGEN , TX, US) observed 1652 UTC 15 February 2019
Temperature: 25.0°C (77°F)
Dewpoint: 19.4°C (67°F) [RH = 71%]
Pressure (altimeter): 29.84 inches Hg (1010.6 mb)
[Sea-level pressure: 1010.5 mb]
Winds: from the S (190 degrees) at 15 MPH (13 knots; 6.7 m/s)
Visibility: 10 or more miles (16+ km)
Ceiling: at least 12,000 feet AGL
Clouds: few clouds at 1300 feet AGL
Weather: no significant weather observed at this time

METAR text: KHRL 151633Z 19013KT 10SM SCT009 24/19 A2985 RMK AO2 T02390194
Conditions at: KHRL (HARLINGEN , TX, US) observed 1633 UTC 15 February 2019
Temperature: 23.9°C (75°F)
Dewpoint: 19.4°C (67°F) [RH = 76%]
Pressure (altimeter): 29.85 inches Hg (1010.9 mb)
Winds: from the S (190 degrees) at 15 MPH (13 knots; 6.7 m/s)
Visibility: 10 or more miles (16+ km)
Ceiling: at least 12,000 feet AGL
Clouds: scattered clouds at 900 feet AGL
Weather: no significant weather observed at this time

METAR text: KHRL 151552Z 20014KT 9SM OVC005 21/19 A2985 RMK AO2 CIG 004V009 SLP108 T02110194
Conditions at: KHRL (HARLINGEN , TX, US) observed 1552 UTC 15 February 2019
Temperature: 21.1°C (70°F)
Dewpoint: 19.4°C (67°F) [RH = 90%]
Pressure (altimeter): 29.85 inches Hg (1010.9 mb)
[Sea-level pressure: 1010.8 mb]
Winds: from the SSW (200 degrees) at 16 MPH (14 knots; 7.2 m/s)
Visibility: 9 miles (14 km)
Ceiling: 500 feet AGL
Clouds: overcast cloud deck at 500 feet AGL
Weather: no significant weather observed at this time

METAR text: KHRL 151549Z 19016KT 9SM OVC005 21/19 A2985 RMK AO2 CIG 004V009
Conditions at: KHRL (HARLINGEN , TX, US) observed 1549 UTC 15 February 2019
Temperature: 21.0°C (70°F)
Dewpoint: 19.0°C (66°F) [RH = 88%]
Pressure (altimeter): 29.85 inches Hg (1010.9 mb)
Winds: from the S (190 degrees) at 18 MPH (16 knots; 8.2 m/s)
Visibility: 9 miles (14 km)
Ceiling: 500 feet AGL
Clouds: overcast cloud deck at 500 feet AGL
Weather: no significant weather observed at this time

METAR text: KHRL 151452Z 19013KT 5SM BR OVC003 19/19 A2984 RMK AO2 SLP104 T01940189 53018
Conditions at: KHRL (HARLINGEN , TX, US) observed 1452 UTC 15 February 2019
Temperature: 19.4°C (67°F)
Dewpoint: 18.9°C (66°F) [RH = 97%]
Pressure (altimeter): 29.84 inches Hg (1010.6 mb)
[Sea-level pressure: 1010.4 mb]
Winds: from the S (190 degrees) at 15 MPH (13 knots; 6.7 m/s)
Visibility: 5 miles ( 8 km)
Ceiling: 300 feet AGL
Clouds: overcast cloud deck at 300 feet AGL
Weather: BR  (mist)

METAR text: KHRL 151408Z 19010KT 4SM BR OVC003 19/18 A2983 RMK AO2 T01890183
Conditions at: KHRL (HARLINGEN , TX, US) observed 1408 UTC 15 February 2019
Temperature: 18.9°C (66°F)
Dewpoint: 18.3°C (65°F) [RH = 96%]
Pressure (altimeter): 29.83 inches Hg (1010.2 mb)
Winds: from the S (190 degrees) at 12 MPH (10 knots; 5.1 m/s)
Visibility: 4 miles ( 6 km)
Ceiling: 300 feet AGL
Clouds: overcast cloud deck at 300 feet AGL
Weather: BR  (mist)

METAR text: KHRL 151352Z 19012KT 2 1/2SM BR OVC003 19/18 A2983 RMK AO2 SLP099 T01890183
Conditions at: KHRL (HARLINGEN , TX, US) observed 1352 UTC 15 February 2019
Temperature: 18.9°C (66°F)
Dewpoint: 18.3°C (65°F) [RH = 96%]
Pressure (altimeter): 29.83 inches Hg (1010.2 mb)
[Sea-level pressure: 1009.9 mb]
Winds: from the S (190 degrees) at 14 MPH (12 knots; 6.2 m/s)
Visibility: 2.50 miles (4.02 km)
Ceiling: 300 feet AGL
Clouds: overcast cloud deck at 300 feet AGL
Weather: BR  (mist)

METAR text: KHRL 151345Z 19012KT 2 1/2SM BR OVC003 19/18 A2982 RMK AO2 T01890178
Conditions at: KHRL (HARLINGEN , TX, US) observed 1345 UTC 15 February 2019
Temperature: 18.9°C (66°F)
Dewpoint: 17.8°C (64°F) [RH = 93%]
Pressure (altimeter): 29.82 inches Hg (1009.9 mb)
Winds: from the S (190 degrees) at 14 MPH (12 knots; 6.2 m/s)
Visibility: 2.50 miles (4.02 km)
Ceiling: 300 feet AGL
Clouds: overcast cloud deck at 300 feet AGL
Weather: BR  (mist)

METAR text: KHRL 151301Z 19013KT 8SM OVC004 18/18 A2980 RMK AO2 T01830178
Conditions at: KHRL (HARLINGEN , TX, US) observed 1301 UTC 15 February 2019
Temperature: 18.3°C (65°F)
Dewpoint: 17.8°C (64°F) [RH = 97%]
Pressure (altimeter): 29.80 inches Hg (1009.2 mb)
Winds: from the S (190 degrees) at 15 MPH (13 knots; 6.7 m/s)
Visibility: 8 miles (13 km)
Ceiling: 400 feet AGL
Clouds: overcast cloud deck at 400 feet AGL
Weather: no significant weather observed at this time

METAR text: KHRL 151252Z 19014KT 8SM OVC005 18/17 A2980 RMK AO2 SLP089 T01830172
Conditions at: KHRL (HARLINGEN , TX, US) observed 1252 UTC 15 February 2019
Temperature: 18.3°C (65°F)
Dewpoint: 17.2°C (63°F) [RH = 93%]
Pressure (altimeter): 29.80 inches Hg (1009.2 mb)
[Sea-level pressure: 1008.9 mb]
Winds: from the S (190 degrees) at 16 MPH (14 knots; 7.2 m/s)
Visibility: 8 miles (13 km)
Ceiling: 500 feet AGL
Clouds: overcast cloud deck at 500 feet AGL
Weather: no significant weather observed at this time

METAR text: KHRL 151152Z 19012KT 9SM BKN005 18/17 A2979 RMK AO2 SLP086 T01830172 10183 20144 58016
Conditions at: KHRL (HARLINGEN , TX, US) observed 1152 UTC 15 February 2019
Temperature: 18.3°C (65°F)
Dewpoint: 17.2°C (63°F) [RH = 93%]
Pressure (altimeter): 29.79 inches Hg (1008.9 mb)
[Sea-level pressure: 1008.6 mb]
Winds: from the S (190 degrees) at 14 MPH (12 knots; 6.2 m/s)
Visibility: 9 miles (14 km)
Ceiling: 500 feet AGL
Clouds: broken clouds at 500 feet AGL
Weather: no significant weather observed at this time

METAR text: KHRL 151052Z AUTO 19010KT 9SM BKN005 18/17 A2980 RMK AO2 SLP092 T01780167
Conditions at: KHRL (HARLINGEN , TX, US) observed 1052 UTC 15 February 2019
Temperature: 17.8°C (64°F)
Dewpoint: 16.7°C (62°F) [RH = 93%]
Pressure (altimeter): 29.80 inches Hg (1009.2 mb)
[Sea-level pressure: 1009.2 mb]
Winds: from the S (190 degrees) at 12 MPH (10 knots; 5.1 m/s)
Visibility: 9 miles (14 km)
Ceiling: 500 feet AGL
Clouds: broken clouds at 500 feet AGL
Weather: automated observation with no human augmentation;
there may or may not be significant weather present at this time

METAR text: KHRL 150952Z AUTO 19012KT 9SM FEW006 18/17 A2981 RMK AO2 SLP095 T01780167
Conditions at: KHRL (HARLINGEN , TX, US) observed 0952 UTC 15 February 2019
Temperature: 17.8°C (64°F)
Dewpoint: 16.7°C (62°F) [RH = 93%]
Pressure (altimeter): 29.81 inches Hg (1009.6 mb)
[Sea-level pressure: 1009.5 mb]
Winds: from the S (190 degrees) at 14 MPH (12 knots; 6.2 m/s)
Visibility: 9 miles (14 km)
Ceiling: at least 12,000 feet AGL
Clouds: few clouds at 600 feet AGL
Weather: automated observation with no human augmentation;
there may or may not be significant weather present at this time

METAR text: KHRL 150852Z AUTO 19011KT 9SM FEW006 18/17 A2983 RMK AO2 SLP101 T01780167 58010
Conditions at: KHRL (HARLINGEN , TX, US) observed 0852 UTC 15 February 2019
Temperature: 17.8°C (64°F)
Dewpoint: 16.7°C (62°F) [RH = 93%]
Pressure (altimeter): 29.83 inches Hg (1010.2 mb)
[Sea-level pressure: 1010.1 mb]
Winds: from the S (190 degrees) at 13 MPH (11 knots; 5.7 m/s)
Visibility: 9 miles (14 km)
Ceiling: at least 12,000 feet AGL
Clouds: few clouds at 600 feet AGL
Weather: automated observation with no human augmentation;
there may or may not be significant weather present at this time

METAR text: KHRL 150847Z AUTO 20011KT 9SM FEW006 18/17 A2984 RMK AO2
Conditions at: KHRL (HARLINGEN , TX, US) observed 0847 UTC 15 February 2019
Temperature: 18.0°C (64°F)
Dewpoint: 17.0°C (63°F) [RH = 94%]
Pressure (altimeter): 29.84 inches Hg (1010.6 mb)
Winds: from the SSW (200 degrees) at 13 MPH (11 knots; 5.7 m/s)
Visibility: 9 miles (14 km)
Ceiling: at least 12,000 feet AGL
Clouds: few clouds at 600 feet AGL
Weather: automated observation with no human augmentation;
there may or may not be significant weather present at this time

METAR text: KHRL 150752Z AUTO 19010KT 10SM CLR 18/17 A2986 RMK AO2 SLP109 T01830172
Conditions at: KHRL (HARLINGEN , TX, US) observed 0752 UTC 15 February 2019
Temperature: 18.3°C (65°F)
Dewpoint: 17.2°C (63°F) [RH = 93%]
Pressure (altimeter): 29.86 inches Hg (1011.3 mb)
[Sea-level pressure: 1010.9 mb]
Winds: from the S (190 degrees) at 12 MPH (10 knots; 5.1 m/s)
Visibility: 10 or more miles (16+ km)
Ceiling: at least 12,000 feet AGL
Clouds: sky clear below 12,000 feet AGL
Weather: automated observation with no human augmentation;
there may or may not be significant weather present at this time

METAR text: KHRL 150652Z AUTO 16005KT 5SM BR CLR 14/14 A2986 RMK AO2 SLP111 T01440139
Conditions at: KHRL (HARLINGEN , TX, US) observed 0652 UTC 15 February 2019
Temperature: 14.4°C (58°F)
Dewpoint: 13.9°C (57°F) [RH = 97%]
Pressure (altimeter): 29.86 inches Hg (1011.3 mb)
[Sea-level pressure: 1011.1 mb]
Winds: from the SSE (160 degrees) at 6 MPH (5 knots; 2.6 m/s)
Visibility: 5 miles ( 8 km)
Ceiling: at least 12,000 feet AGL
Clouds: sky clear below 12,000 feet AGL
Weather: BR  (mist)

METAR text: KHRL 150552Z 15005KT 8SM CLR 16/14 A2987 RMK AO2 SLP114 T01560144 10228 20144 402610106 58000
Conditions at: KHRL (HARLINGEN , TX, US) observed 0552 UTC 15 February 2019
Temperature: 15.6°C (60°F)
Dewpoint: 14.4°C (58°F) [RH = 93%]
Pressure (altimeter): 29.87 inches Hg (1011.6 mb)
[Sea-level pressure: 1011.4 mb]
Winds: from the SSE (150 degrees) at 6 MPH (5 knots; 2.6 m/s)
Visibility: 8 miles (13 km)
Ceiling: at least 12,000 feet AGL
Clouds: sky clear below 12,000 feet AGL
Weather: no significant weather observed at this time

METAR text: KHRL 150452Z 14006KT 9SM CLR 16/14 A2987 RMK AO2 SLP116 T01560144
Conditions at: KHRL (HARLINGEN , TX, US) observed 0452 UTC 15 February 2019
Temperature: 15.6°C (60°F)
Dewpoint: 14.4°C (58°F) [RH = 93%]
Pressure (altimeter): 29.87 inches Hg (1011.6 mb)
[Sea-level pressure: 1011.6 mb]
Winds: from the SE (140 degrees) at 7 MPH (6 knots; 3.1 m/s)
Visibility: 9 miles (14 km)
Ceiling: at least 12,000 feet AGL
Clouds: sky clear below 12,000 feet AGL
Weather: no significant weather observed at this time

METAR text: KHRL 150352Z 14006KT 10SM CLR 17/15 A2988 RMK AO2 SLP119 T01670150
Conditions at: KHRL (HARLINGEN , TX, US) observed 0352 UTC 15 February 2019
Temperature: 16.7°C (62°F)
Dewpoint: 15.0°C (59°F) [RH = 90%]
Pressure (altimeter): 29.88 inches Hg (1011.9 mb)
[Sea-level pressure: 1011.9 mb]
Winds: from the SE (140 degrees) at 7 MPH (6 knots; 3.1 m/s)
Visibility: 10 or more miles (16+ km)
Ceiling: at least 12,000 feet AGL
Clouds: sky clear below 12,000 feet AGL
Weather: no significant weather observed at this time

METAR text: KHRL 150252Z 16008KT 10SM CLR 17/16 A2987 RMK AO2 SLP114 T01720156 51012
Conditions at: KHRL (HARLINGEN , TX, US) observed 0252 UTC 15 February 2019
Temperature: 17.2°C (63°F)
Dewpoint: 15.6°C (60°F) [RH = 90%]
Pressure (altimeter): 29.87 inches Hg (1011.6 mb)
[Sea-level pressure: 1011.4 mb]
Winds: from the SSE (160 degrees) at 9 MPH (8 knots; 4.1 m/s)
Visibility: 10 or more miles (16+ km)
Ceiling: at least 12,000 feet AGL
Clouds: sky clear below 12,000 feet AGL
Weather: no significant weather observed at this time

METAR text: KHRL 150152Z 15008KT 10SM CLR 18/16 A2986 RMK AO2 SLP110 T01830156
Conditions at: KHRL (HARLINGEN , TX, US) observed 0152 UTC 15 February 2019
Temperature: 18.3°C (65°F)
Dewpoint: 15.6°C (60°F) [RH = 84%]
Pressure (altimeter): 29.86 inches Hg (1011.3 mb)
[Sea-level pressure: 1011.0 mb]
Winds: from the SSE (150 degrees) at 9 MPH (8 knots; 4.1 m/s)
Visibility: 10 or more miles (16+ km)
Ceiling: at least 12,000 feet AGL
Clouds: sky clear below 12,000 feet AGL
Weather: no significant weather observed at this time

METAR text: KHRL 150052Z 16013KT 10SM CLR 21/16 A2985 RMK AO2 SLP108 T02060156
Conditions at: KHRL (HARLINGEN , TX, US) observed 0052 UTC 15 February 2019
Temperature: 20.6°C (69°F)
Dewpoint: 15.6°C (60°F) [RH = 73%]
Pressure (altimeter): 29.85 inches Hg (1010.9 mb)
[Sea-level pressure: 1010.8 mb]
Winds: from the SSE (160 degrees) at 15 MPH (13 knots; 6.7 m/s)
Visibility: 10 or more miles (16+ km)
Ceiling: at least 12,000 feet AGL
Clouds: sky clear below 12,000 feet AGL
Weather: no significant weather observed at this time

METAR text: KHRL 142352Z 18014KT 10SM CLR 23/15 A2983 RMK AO2 SLP102 T02280150 10261 20228 55003
Conditions at: KHRL (HARLINGEN , TX, US) observed 2352 UTC 14 February 2019
Temperature: 22.8°C (73°F)
Dewpoint: 15.0°C (59°F) [RH = 61%]
Pressure (altimeter): 29.83 inches Hg (1010.2 mb)
[Sea-level pressure: 1010.2 mb]
Winds: from the S (180 degrees) at 16 MPH (14 knots; 7.2 m/s)
Visibility: 10 or more miles (16+ km)
Ceiling: at least 12,000 feet AGL
Clouds: sky clear below 12,000 feet AGL
Weather: no significant weather observed at this time

METAR text: KHRL 142252Z 16015KT 10SM CLR 24/16 A2983 RMK AO2 SLP100 T02440156
Conditions at: KHRL (HARLINGEN , TX, US) observed 2252 UTC 14 February 2019
Temperature: 24.4°C (76°F)
Dewpoint: 15.6°C (60°F) [RH = 58%]
Pressure (altimeter): 29.83 inches Hg (1010.2 mb)
[Sea-level pressure: 1010.0 mb]
Winds: from the SSE (160 degrees) at 17 MPH (15 knots; 7.7 m/s)
Visibility: 10 or more miles (16+ km)
Ceiling: at least 12,000 feet AGL
Clouds: sky clear below 12,000 feet AGL
Weather: no significant weather observed at this time

METAR text: KHRL 142152Z 17015G21KT 10SM CLR 25/15 A2983 RMK AO2 SLP101 T02500150
Conditions at: KHRL (HARLINGEN , TX, US) observed 2152 UTC 14 February 2019
Temperature: 25.0°C (77°F)
Dewpoint: 15.0°C (59°F) [RH = 54%]
Pressure (altimeter): 29.83 inches Hg (1010.2 mb)
[Sea-level pressure: 1010.1 mb]
Winds: from the S (170 degrees) at 17 MPH (15 knots; 7.7 m/s)
gusting to 24 MPH (21 knots; 10.8 m/s)
Visibility: 10 or more miles (16+ km)
Ceiling: at least 12,000 feet AGL
Clouds: sky clear below 12,000 feet AGL
Weather: no significant weather observed at this time

METAR text: KHRL 142052Z 18017KT 10SM CLR 24/13 A2984 RMK AO2 PK WND 17026/2002 SLP105 T02390133 56032
Conditions at: KHRL (HARLINGEN , TX, US) observed 2052 UTC 14 February 2019
Temperature: 23.9°C (75°F)
Dewpoint: 13.3°C (56°F) [RH = 51%]
Pressure (altimeter): 29.84 inches Hg (1010.6 mb)
[Sea-level pressure: 1010.5 mb]
Winds: from the S (180 degrees) at 20 MPH (17 knots; 8.7 m/s)
Visibility: 10 or more miles (16+ km)
Ceiling: at least 12,000 feet AGL
Clouds: sky clear below 12,000 feet AGL
Weather: no significant weather observed at this time

METAR text: KHRL 141952Z 19018G27KT 10SM CLR 25/12 A2987 RMK AO2 PK WND 20031/1938 SLP114 T02500122
Conditions at: KHRL (HARLINGEN , TX, US) observed 1952 UTC 14 February 2019
Temperature: 25.0°C (77°F)
Dewpoint: 12.2°C (54°F) [RH = 45%]
Pressure (altimeter): 29.87 inches Hg (1011.6 mb)
[Sea-level pressure: 1011.4 mb]
Winds: from the S (190 degrees) at 21 MPH (18 knots; 9.3 m/s)
gusting to 31 MPH (27 knots; 13.9 m/s)
Visibility: 10 or more miles (16+ km)
Ceiling: at least 12,000 feet AGL
Clouds: sky clear below 12,000 feet AGL
Weather: no significant weather observed at this time

METAR text: KHRL 141935Z 19022KT 10SM CLR 26/13 A2988 RMK AO2 PK WND 17030/1903 T02560133
Conditions at: KHRL (HARLINGEN , TX, US) observed 1935 UTC 14 February 2019
Temperature: 25.6°C (78°F)
Dewpoint: 13.3°C (56°F) [RH = 47%]
Pressure (altimeter): 29.88 inches Hg (1011.9 mb)
Winds: from the S (190 degrees) at 25 MPH (22 knots; 11.3 m/s)
Visibility: 10 or more miles (16+ km)
Ceiling: at least 12,000 feet AGL
Clouds: sky clear below 12,000 feet AGL
Weather: no significant weather observed at this time

METAR text: KHRL 141920Z 18023G28KT 1 1/2SM HZ CLR 24/13 A2989 RMK AO2 PK WND 17030/1903 T02440133
Conditions at: KHRL (HARLINGEN , TX, US) observed 1920 UTC 14 February 2019
Temperature: 24.4°C (76°F)
Dewpoint: 13.3°C (56°F) [RH = 50%]
Pressure (altimeter): 29.89 inches Hg (1012.3 mb)
Winds: from the S (180 degrees) at 26 MPH (23 knots; 11.8 m/s)
gusting to 32 MPH (28 knots; 14.4 m/s)
Visibility: 1.50 miles (2.41 km)
Ceiling: at least 12,000 feet AGL
Clouds: sky clear below 12,000 feet AGL
Weather: HZ  (haze)

METAR text: KHRL 141852Z 19020G27KT 10SM FEW036 25/14 A2990 RMK AO2 PK WND 17031/1816 SLP125 T02500144
Conditions at: KHRL (HARLINGEN , TX, US) observed 1852 UTC 14 February 2019
Temperature: 25.0°C (77°F)
Dewpoint: 14.4°C (58°F) [RH = 52%]
Pressure (altimeter): 29.90 inches Hg (1012.6 mb)
[Sea-level pressure: 1012.5 mb]
Winds: from the S (190 degrees) at 23 MPH (20 knots; 10.3 m/s)
gusting to 31 MPH (27 knots; 13.9 m/s)
Visibility: 10 or more miles (16+ km)
Ceiling: at least 12,000 feet AGL
Clouds: few clouds at 3600 feet AGL
Weather: no significant weather observed at this time

METAR text: KHRL 141752Z 18025G32KT 10SM FEW033 24/14 A2994 RMK AO2 PK WND 19032/1747 SLP137 T02390144 10239 20133 58008
Conditions at: KHRL (HARLINGEN , TX, US) observed 1752 UTC 14 February 2019
Temperature: 23.9°C (75°F)
Dewpoint: 14.4°C (58°F) [RH = 55%]
Pressure (altimeter): 29.94 inches Hg (1014.0 mb)
[Sea-level pressure: 1013.7 mb]
Winds: from the S (180 degrees) at 29 MPH (25 knots; 12.9 m/s)
gusting to 37 MPH (32 knots; 16.5 m/s)
Visibility: 10 or more miles (16+ km)
Ceiling: at least 12,000 feet AGL
Clouds: few clouds at 3300 feet AGL
Weather: no significant weather observed at this time

METAR text: KHRL 141652Z 18021KT 10SM SCT030 23/14 A2996 RMK AO2 PK WND 18031/1634 SLP144 T02280144
Conditions at: KHRL (HARLINGEN , TX, US) observed 1652 UTC 14 February 2019
Temperature: 22.8°C (73°F)
Dewpoint: 14.4°C (58°F) [RH = 59%]
Pressure (altimeter): 29.96 inches Hg (1014.6 mb)
[Sea-level pressure: 1014.4 mb]
Winds: from the S (180 degrees) at 24 MPH (21 knots; 10.8 m/s)
Visibility: 10 or more miles (16+ km)
Ceiling: at least 12,000 feet AGL
Clouds: scattered clouds at 3000 feet AGL
Weather: no significant weather observed at this time

METAR text: KHRL 141623Z 19021G29KT 10SM BKN028 22/15 A2996 RMK AO2 PK WND 18029/1618 T02170150
Conditions at: KHRL (HARLINGEN , TX, US) observed 1623 UTC 14 February 2019
Temperature: 21.7°C (71°F)
Dewpoint: 15.0°C (59°F) [RH = 66%]
Pressure (altimeter): 29.96 inches Hg (1014.6 mb)
Winds: from the S (190 degrees) at 24 MPH (21 knots; 10.8 m/s)
gusting to 33 MPH (29 knots; 14.9 m/s)
Visibility: 10 or more miles (16+ km)
Ceiling: 2800 feet AGL
Clouds: broken clouds at 2800 feet AGL
Weather: no significant weather observed at this time

METAR text: KHRL 141552Z 19018KT 10SM CLR 21/15 A2997 RMK AO2 SLP148 T02110150
Conditions at: KHRL (HARLINGEN , TX, US) observed 1552 UTC 14 February 2019
Temperature: 21.1°C (70°F)
Dewpoint: 15.0°C (59°F) [RH = 68%]
Pressure (altimeter): 29.97 inches Hg (1015.0 mb)
[Sea-level pressure: 1014.8 mb]
Winds: from the S (190 degrees) at 21 MPH (18 knots; 9.3 m/s)
Visibility: 10 or more miles (16+ km)
Ceiling: at least 12,000 feet AGL
Clouds: sky clear below 12,000 feet AGL
Weather: no significant weather observed at this time

METAR text: KHRL 141452Z 17012KT 10SM CLR 19/15 A2996 RMK AO2 SLP146 T01890150 52005
Conditions at: KHRL (HARLINGEN , TX, US) observed 1452 UTC 14 February 2019
Temperature: 18.9°C (66°F)
Dewpoint: 15.0°C (59°F) [RH = 78%]
Pressure (altimeter): 29.96 inches Hg (1014.6 mb)
[Sea-level pressure: 1014.6 mb]
Winds: from the S (170 degrees) at 14 MPH (12 knots; 6.2 m/s)
Visibility: 10 or more miles (16+ km)
Ceiling: at least 12,000 feet AGL
Clouds: sky clear below 12,000 feet AGL
Weather: no significant weather observed at this time

METAR text: KHRL 141352Z 15009KT 10SM CLR 17/14 A2996 RMK AO2 SLP144 T01670144
Conditions at: KHRL (HARLINGEN , TX, US) observed 1352 UTC 14 February 2019
Temperature: 16.7°C (62°F)
Dewpoint: 14.4°C (58°F) [RH = 86%]
Pressure (altimeter): 29.96 inches Hg (1014.6 mb)
[Sea-level pressure: 1014.4 mb]
Winds: from the SSE (150 degrees) at 10 MPH (9 knots; 4.6 m/s)
Visibility: 10 or more miles (16+ km)
Ceiling: at least 12,000 feet AGL
Clouds: sky clear below 12,000 feet AGL
Weather: no significant weather observed at this time

METAR text: KHRL 141252Z 15007KT 10SM CLR 13/12 A2995 RMK AO2 SLP143 T01330117
Conditions at: KHRL (HARLINGEN , TX, US) observed 1252 UTC 14 February 2019
Temperature: 13.3°C (56°F)
Dewpoint: 11.7°C (53°F) [RH = 90%]
Pressure (altimeter): 29.95 inches Hg (1014.3 mb)
[Sea-level pressure: 1014.3 mb]
Winds: from the SSE (150 degrees) at 8 MPH (7 knots; 3.6 m/s)
Visibility: 10 or more miles (16+ km)
Ceiling: at least 12,000 feet AGL
Clouds: sky clear below 12,000 feet AGL
Weather: no significant weather observed at this time

METAR text: KHRL 141152Z 13007KT 10SM CLR 15/13 A2995 RMK AO2 SLP141 T01500128 10150 20106 56016 $
Conditions at: KHRL (HARLINGEN , TX, US) observed 1152 UTC 14 February 2019
Temperature: 15.0°C (59°F)
Dewpoint: 12.8°C (55°F) [RH = 87%]
Pressure (altimeter): 29.95 inches Hg (1014.3 mb)
[Sea-level pressure: 1014.1 mb]
Winds: from the SE (130 degrees) at 8 MPH (7 knots; 3.6 m/s)
Visibility: 10 or more miles (16+ km)
Ceiling: at least 12,000 feet AGL
Clouds: sky clear below 12,000 feet AGL
Weather:
SOME DATA ABOVE MAY BE INACCURATE!!!
"$" is an indication the sensor requires maintenance

Forecast for: KHRL (HARLINGEN , TX, US)
Text: KHRL 152325Z 1600/1624 15012KT P6SM FEW250
Forecast period: 0000 to 0300 UTC 16 February 2019
Forecast type: FROM: standard forecast or significant change
Winds: from the SSE (150 degrees) at 14 MPH (12 knots; 6.2 m/s)
Visibility: 6 or more miles 10+ km)
Ceiling: at least 12,000 feet AGL
Clouds: few clouds at 25000 feet AGL
Weather: no significant weather forecast for this period
Text: FM160300 18010KT P6SM FEW250
Forecast period: 0300 to 0600 UTC 16 February 2019
Forecast type: FROM: standard forecast or significant change
Winds: from the S (180 degrees) at 12 MPH (10 knots; 5.1 m/s)
Visibility: 6 or more miles 10+ km)
Ceiling: at least 12,000 feet AGL
Clouds: few clouds at 25000 feet AGL
Weather: no significant weather forecast for this period
Text: FM160600 18012KT 3SM BR FEW250
Forecast period: 0600 to 1500 UTC 16 February 2019
Forecast type: FROM: standard forecast or significant change
Winds: from the S (180 degrees) at 14 MPH (12 knots; 6.2 m/s)
Visibility: 3 miles (5 km)
Ceiling: at least 12,000 feet AGL
Clouds: few clouds at 25000 feet AGL
Weather: BR  (mist)
Text: FM161500 16015G22KT P6SM SCT050
Forecast period: 1500 UTC 16 February 2019 to 0000 UTC 17 February 2019
Forecast type: FROM: standard forecast or significant change
Winds: from the SSE (160 degrees) at 17 MPH (15 knots; 7.7 m/s)
gusting to 25 MPH (22 knots; 11.3 m/s)
Visibility: 6 or more miles 10+ km)
Ceiling: at least 12,000 feet AGL
Clouds: scattered clouds at 5000 feet AGL
Weather: no significant weather forecast for this period